Time;durP1;ratioP1;P1;durP2;ratioP2;P2;SDS_P1;SDS_P2;PMS_P1;PMS_P2;Temp;Humidity;BMP_temperature;BMP_pressure;BME280_temperature;BME280_humidity;BME280_pressure;Samples;Min_cycle;Max_cycle;Signal;HPM_P1;HPM_P2
2020/12/17 00:00:27;;;;;;;0.93;0.43;;;22.40;44.10;;;;;;5027494;28;20037;-49
2020/12/17 00:02:53;;;;;;;1.20;0.70;;;22.40;44.10;;;;;;5030638;28;20076;-47
2020/12/17 00:05:22;;;;;;;1.20;0.65;;;22.40;44.10;;;;;;5024780;28;20479;-47
2020/12/17 00:07:47;;;;;;;1.10;0.50;;;22.40;44.10;;;;;;5029592;28;20025;-47
2020/12/17 00:10:14;;;;;;;0.90;0.55;;;22.40;44.10;;;;;;5025725;28;20390;-45
2020/12/17 00:12:46;;;;;;;1.15;0.50;;;22.40;44.10;;;;;;5030606;28;20108;-47
2020/12/17 00:15:15;;;;;;;0.70;0.50;;;22.40;44.00;;;;;;5026886;28;20478;-48
2020/12/17 00:17:48;;;;;;;1.67;0.57;;;22.40;44.00;;;;;;5025059;28;20702;-49
2020/12/17 00:20:16;;;;;;;1.00;0.40;;;22.30;44.00;;;;;;5023827;28;20474;-46
2020/12/17 00:22:43;;;;;;;0.80;0.40;;;22.30;44.00;;;;;;5028503;28;20033;-48
2020/12/17 00:25:11;;;;;;;0.82;0.32;;;22.30;44.00;;;;;;5005968;28;20025;-49
2020/12/17 00:27:37;;;;;;;1.20;0.40;;;22.30;44.00;;;;;;5023820;28;20100;-47
2020/12/17 00:30:07;;;;;;;0.73;0.40;;;22.30;44.00;;;;;;5025972;28;20116;-48
2020/12/17 00:32:32;;;;;;;1.88;0.40;;;22.30;44.10;;;;;;5027563;28;20055;-50
2020/12/17 00:34:58;;;;;;;1.00;0.55;;;22.20;44.00;;;;;;5025164;28;20034;-49
2020/12/17 00:37:33;;;;;;;0.98;0.70;;;22.20;44.00;;;;;;5026257;28;20037;-50
2020/12/17 00:40:02;;;;;;;1.45;0.50;;;22.20;44.00;;;;;;5028515;28;20025;-49
2020/12/17 00:42:28;;;;;;;1.17;0.50;;;22.20;44.00;;;;;;5021331;28;20026;-49
2020/12/17 00:44:53;;;;;;;0.82;0.60;;;22.20;44.10;;;;;;5023666;28;20105;-49
2020/12/17 00:47:19;;;;;;;1.05;0.40;;;22.20;44.00;;;;;;5027581;28;20095;-48
2020/12/17 00:49:45;;;;;;;0.85;0.50;;;22.20;44.00;;;;;;5005632;28;20092;-50
2020/12/17 00:52:11;;;;;;;1.10;0.50;;;22.10;44.00;;;;;;5019756;28;20041;-50
2020/12/17 00:54:40;;;;;;;1.10;0.35;;;22.10;44.00;;;;;;5010175;28;20022;-47
2020/12/17 00:57:06;;;;;;;0.68;0.25;;;22.10;44.00;;;;;;5025924;28;20060;-49
2020/12/17 00:59:32;;;;;;;0.70;0.40;;;22.10;44.00;;;;;;5027210;28;20037;-49
2020/12/17 01:01:58;;;;;;;1.42;0.40;;;22.10;44.10;;;;;;5008389;28;20454;-48
2020/12/17 01:04:23;;;;;;;0.70;0.40;;;22.10;44.10;;;;;;5028105;28;20021;-48
2020/12/17 01:06:49;;;;;;;0.52;0.30;;;22.00;44.00;;;;;;5026333;28;20071;-49
2020/12/17 01:09:14;;;;;;;0.63;0.22;;;22.00;44.00;;;;;;5026690;28;20026;-48
2020/12/17 01:11:40;;;;;;;1.00;0.30;;;22.10;44.00;;;;;;5026901;28;20075;-50
2020/12/17 01:14:05;;;;;;;0.70;0.40;;;22.00;44.00;;;;;;5024904;28;20030;-49
2020/12/17 01:16:32;;;;;;;0.90;0.60;;;22.00;44.00;;;;;;5026545;28;20034;-49
2020/12/17 01:18:57;;;;;;;0.85;0.40;;;22.00;44.00;;;;;;5026026;28;20024;-47
2020/12/17 01:21:23;;;;;;;0.90;0.50;;;22.00;44.00;;;;;;5026949;28;20033;-48
2020/12/17 01:23:49;;;;;;;0.75;0.30;;;22.00;44.10;;;;;;5027705;28;20030;-49
2020/12/17 01:26:14;;;;;;;1.05;0.30;;;22.00;44.00;;;;;;5027712;28;20036;-48
2020/12/17 01:28:41;;;;;;;1.00;0.30;;;21.90;44.00;;;;;;5025797;28;20025;-50
2020/12/17 01:31:12;;;;;;;0.95;0.20;;;21.90;44.00;;;;;;5026985;28;20029;-49
2020/12/17 01:33:39;;;;;;;0.60;0.40;;;21.90;44.00;;;;;;5025805;28;20490;-49
2020/12/17 01:36:07;;;;;;;1.13;0.38;;;21.90;43.90;;;;;;5026138;28;20376;-49
2020/12/17 01:38:36;;;;;;;0.80;0.40;;;21.90;43.90;;;;;;5029012;28;20036;-48
2020/12/17 01:41:03;;;;;;;1.08;0.40;;;21.90;43.90;;;;;;5019471;28;20033;-48
2020/12/17 01:43:41;;;;;;;0.47;0.20;;;21.90;43.90;;;;;;5028163;28;20032;-50
2020/12/17 01:46:08;;;;;;;1.42;0.30;;;21.90;43.90;;;;;;5023413;28;20731;-49
2020/12/17 01:48:34;;;;;;;0.95;0.38;;;21.90;43.90;;;;;;5019796;28;20705;-48
2020/12/17 01:51:01;;;;;;;1.20;0.55;;;21.90;43.90;;;;;;5018859;28;20437;-49
2020/12/17 01:53:27;;;;;;;0.52;0.30;;;21.80;43.90;;;;;;5028527;28;20059;-49
2020/12/17 01:56:01;;;;;;;0.90;0.35;;;21.80;43.90;;;;;;5025654;28;20457;-49
2020/12/17 01:58:31;;;;;;;0.75;0.30;;;21.80;43.90;;;;;;5026165;28;20061;-49
2020/12/17 02:00:58;;;;;;;0.60;0.30;;;21.80;43.90;;;;;;5024878;28;20032;-50
2020/12/17 02:03:24;;;;;;;0.60;0.30;;;21.80;43.90;;;;;;5024706;28;20544;-50
2020/12/17 02:05:50;;;;;;;0.73;0.25;;;21.80;43.90;;;;;;5025737;28;20451;-48
2020/12/17 02:08:19;;;;;;;0.70;0.30;;;21.70;43.90;;;;;;5027823;28;20104;-50
2020/12/17 02:10:45;;;;;;;0.68;0.30;;;21.70;43.90;;;;;;5027359;28;20030;-48
2020/12/17 02:13:12;;;;;;;0.75;0.30;;;21.70;44.00;;;;;;5027608;28;20028;-50
2020/12/17 02:15:38;;;;;;;0.93;0.30;;;21.70;44.00;;;;;;5023898;28;20112;-49
2020/12/17 02:18:04;;;;;;;1.25;0.28;;;21.70;44.00;;;;;;5023012;28;20542;-50
2020/12/17 02:20:30;;;;;;;0.90;0.32;;;21.70;44.00;;;;;;5023905;28;20060;-51
2020/12/17 02:22:55;;;;;;;2.28;0.30;;;21.70;44.00;;;;;;5026924;28;20462;-49
2020/12/17 02:25:21;;;;;;;0.60;0.20;;;21.70;44.00;;;;;;5019530;28;20021;-47
2020/12/17 02:27:47;;;;;;;0.60;0.30;;;21.70;44.00;;;;;;5024185;28;20026;-48
2020/12/17 02:30:13;;;;;;;0.50;0.28;;;21.70;43.90;;;;;;5022993;28;20018;-52
2020/12/17 02:32:39;;;;;;;0.70;0.30;;;21.70;44.00;;;;;;5026743;28;20068;-47
2020/12/17 02:35:08;;;;;;;0.93;0.10;;;21.70;44.00;;;;;;5025968;28;20030;-49
2020/12/17 02:37:34;;;;;;;0.60;0.20;;;21.60;44.00;;;;;;5023808;28;20108;-49
2020/12/17 02:40:00;;;;;;;0.75;0.30;;;21.60;43.90;;;;;;5026319;28;20025;-48
2020/12/17 02:42:26;;;;;;;1.98;0.25;;;21.70;44.00;;;;;;5017844;28;20029;-48
2020/12/17 02:44:51;;;;;;;0.75;0.28;;;21.60;44.00;;;;;;5023067;28;20064;-47
2020/12/17 02:47:17;;;;;;;1.17;0.38;;;21.60;44.00;;;;;;5025550;28;20033;-49
2020/12/17 02:49:43;;;;;;;0.50;0.20;;;21.60;43.90;;;;;;5019935;28;20033;-49
2020/12/17 02:52:09;;;;;;;0.60;0.20;;;21.60;43.90;;;;;;5022967;28;20030;-50
2020/12/17 02:54:35;;;;;;;0.57;0.20;;;21.60;44.00;;;;;;5008260;28;20080;-50
2020/12/17 02:57:00;;;;;;;0.70;0.20;;;21.60;43.90;;;;;;5025138;28;20022;-50
2020/12/17 02:59:26;;;;;;;1.23;0.47;;;21.60;43.90;;;;;;5026617;28;20475;-47
2020/12/17 03:01:52;;;;;;;0.77;0.30;;;21.60;43.90;;;;;;5024662;28;20025;-46
2020/12/17 03:04:17;;;;;;;0.80;0.20;;;21.60;43.90;;;;;;5022394;28;20044;-49
2020/12/17 03:06:43;;;;;;;0.60;0.30;;;21.60;43.90;;;;;;5009243;28;20026;-50
2020/12/17 03:09:08;;;;;;;0.65;0.30;;;21.50;43.80;;;;;;5011785;28;20026;-48
2020/12/17 03:11:34;;;;;;;1.73;0.25;;;21.60;43.90;;;;;;5028287;28;20068;-47
2020/12/17 03:13:59;;;;;;;0.60;0.20;;;21.50;43.80;;;;;;5028191;28;20109;-50
2020/12/17 03:16:25;;;;;;;0.70;0.30;;;21.50;43.90;;;;;;5028729;28;20418;-47
2020/12/17 03:18:51;;;;;;;1.08;0.20;;;21.50;43.80;;;;;;5029435;28;20026;-49
2020/12/17 03:21:17;;;;;;;0.73;0.40;;;21.50;43.80;;;;;;5029443;28;20026;-49
2020/12/17 03:23:42;;;;;;;0.55;0.20;;;21.50;43.80;;;;;;5029537;28;20049;-51
2020/12/17 03:26:08;;;;;;;0.57;0.28;;;21.50;43.90;;;;;;5030063;28;20116;-49
2020/12/17 03:28:34;;;;;;;0.88;0.40;;;21.50;43.90;;;;;;5028529;28;20509;-48
2020/12/17 03:31:00;;;;;;;1.77;0.20;;;21.50;43.90;;;;;;5030587;28;20129;-50
2020/12/17 03:33:25;;;;;;;0.35;0.20;;;21.60;43.80;;;;;;5028571;28;20029;-50
2020/12/17 03:35:51;;;;;;;0.80;0.40;;;21.50;43.90;;;;;;5029245;28;20128;-49
2020/12/17 03:38:16;;;;;;;0.80;0.28;;;21.40;43.80;;;;;;5028464;28;20025;-50
2020/12/17 03:40:43;;;;;;;0.80;0.30;;;21.50;43.90;;;;;;5029927;28;20017;-49
2020/12/17 03:43:08;;;;;;;0.47;0.20;;;21.40;43.80;;;;;;4993851;28;20068;-48
2020/12/17 03:45:34;;;;;;;0.40;0.20;;;21.40;43.90;;;;;;5029658;28;20049;-50
2020/12/17 03:48:00;;;;;;;0.80;0.40;;;21.50;43.90;;;;;;5025868;28;20556;-50
2020/12/17 03:50:25;;;;;;;1.15;0.20;;;21.40;43.90;;;;;;5023995;28;20026;-50
2020/12/17 03:52:51;;;;;;;1.10;0.25;;;21.40;43.80;;;;;;5025102;28;20083;-49
2020/12/17 03:55:16;;;;;;;0.52;0.22;;;21.40;43.80;;;;;;5026081;28;20049;-50
2020/12/17 03:57:42;;;;;;;0.88;0.35;;;21.40;43.90;;;;;;5029313;28;20041;-50
2020/12/17 04:00:08;;;;;;;0.98;0.30;;;21.40;43.90;;;;;;5019259;28;20098;-49
2020/12/17 04:02:33;;;;;;;0.93;0.30;;;21.40;43.90;;;;;;5025689;28;20030;-50
2020/12/17 04:04:59;;;;;;;0.50;0.20;;;21.40;43.80;;;;;;5027700;28;20024;-49
2020/12/17 04:07:24;;;;;;;0.65;0.28;;;21.40;43.80;;;;;;5029165;28;20036;-51
2020/12/17 04:09:50;;;;;;;0.63;0.20;;;21.40;43.90;;;;;;5019333;28;20096;-49
2020/12/17 04:12:16;;;;;;;0.57;0.30;;;21.40;43.90;;;;;;5026314;28;20025;-49
2020/12/17 04:14:41;;;;;;;0.50;0.30;;;21.30;43.80;;;;;;5010263;28;20576;-50
2020/12/17 04:17:07;;;;;;;0.40;0.20;;;21.30;43.80;;;;;;5028569;28;20035;-50
2020/12/17 04:19:33;;;;;;;0.68;0.20;;;21.40;43.80;;;;;;4991912;28;20080;-50
2020/12/17 04:21:58;;;;;;;0.40;0.15;;;21.30;43.80;;;;;;5027940;28;20040;-49
2020/12/17 04:24:24;;;;;;;0.63;0.20;;;21.30;43.80;;;;;;5027916;28;20052;-50
2020/12/17 04:26:53;;;;;;;0.50;0.20;;;21.30;43.80;;;;;;5032825;28;20025;-51
2020/12/17 04:29:19;;;;;;;0.70;0.28;;;21.30;43.80;;;;;;5031258;28;20056;-48
2020/12/17 04:31:45;;;;;;;0.70;0.30;;;21.30;43.80;;;;;;5028458;28;20453;-51
2020/12/17 04:34:11;;;;;;;0.88;0.45;;;21.30;43.80;;;;;;5023621;28;20034;-49
2020/12/17 04:36:37;;;;;;;0.68;0.22;;;21.30;43.80;;;;;;5028648;28;20091;-49
2020/12/17 04:39:04;;;;;;;0.70;0.30;;;21.30;43.90;;;;;;5026058;28;20461;-51
2020/12/17 04:41:36;;;;;;;0.60;0.20;;;21.20;43.80;;;;;;5009505;28;20067;-49
2020/12/17 04:44:02;;;;;;;0.50;0.20;;;21.30;43.80;;;;;;5025914;28;20051;-50
2020/12/17 04:46:30;;;;;;;0.52;0.20;;;21.30;43.80;;;;;;5028050;28;20593;-52
2020/12/17 04:48:59;;;;;;;0.55;0.20;;;21.30;43.80;;;;;;5028237;28;20512;-49
2020/12/17 04:51:28;;;;;;;0.35;0.15;;;21.30;43.80;;;;;;5022322;28;20042;-48
2020/12/17 04:54:01;;;;;;;0.50;0.20;;;21.30;43.80;;;;;;5018766;28;20124;-50
2020/12/17 04:56:27;;;;;;;0.63;0.20;;;21.30;43.80;;;;;;5025984;28;20029;-53
2020/12/17 04:58:58;;;;;;;1.08;0.35;;;21.20;43.70;;;;;;5028318;28;20036;-50
2020/12/17 05:01:31;;;;;;;0.50;0.20;;;21.20;43.90;;;;;;5023933;28;20041;-49
2020/12/17 05:03:58;;;;;;;0.63;0.40;;;21.20;43.80;;;;;;5023648;28;20711;-51
2020/12/17 05:06:25;;;;;;;1.05;0.32;;;21.20;43.80;;;;;;5022103;28;20029;-50
2020/12/17 05:08:51;;;;;;;0.60;0.20;;;21.20;43.80;;;;;;5028720;28;20059;-51
2020/12/17 05:11:18;;;;;;;1.05;0.30;;;21.20;43.80;;;;;;5022892;28;20040;-48
2020/12/17 05:13:45;;;;;;;1.20;0.20;;;21.20;43.80;;;;;;5021514;28;20452;-50
2020/12/17 05:16:11;;;;;;;0.50;0.20;;;21.20;43.80;;;;;;5026787;28;20094;-49
2020/12/17 05:18:37;;;;;;;0.65;0.20;;;21.20;43.80;;;;;;5026594;28;20029;-46
2020/12/17 05:21:03;;;;;;;0.95;0.32;;;21.20;43.80;;;;;;5028326;28;20033;-49
2020/12/17 05:23:29;;;;;;;0.50;0.20;;;21.10;43.70;;;;;;5028262;28;20025;-49
2020/12/17 05:25:55;;;;;;;0.50;0.20;;;21.20;43.80;;;;;;5027946;28;20542;-48
2020/12/17 05:28:21;;;;;;;1.05;0.30;;;21.10;43.70;;;;;;5028093;28;20060;-50
2020/12/17 05:30:47;;;;;;;0.45;0.20;;;21.20;43.80;;;;;;5026595;28;20105;-48
2020/12/17 05:33:13;;;;;;;0.60;0.30;;;21.10;43.80;;;;;;5027575;28;20109;-50
2020/12/17 05:35:40;;;;;;;0.30;0.20;;;21.10;43.80;;;;;;5027318;28;20040;-50
2020/12/17 05:38:09;;;;;;;0.60;0.30;;;21.20;43.80;;;;;;5028336;28;20113;-50
2020/12/17 05:40:39;;;;;;;0.77;0.32;;;21.10;43.80;;;;;;5026789;28;20083;-47
2020/12/17 05:43:06;;;;;;;0.70;0.28;;;21.10;43.80;;;;;;5026367;28;20552;-49
2020/12/17 05:45:33;;;;;;;1.08;0.22;;;21.10;43.80;;;;;;5027397;28;20037;-46
2020/12/17 05:48:18;;;;;;;0.88;0.20;;;21.10;43.80;;;;;;5018749;28;20038;-49
2020/12/17 05:50:56;;;;;;;0.73;0.30;;;21.10;43.80;;;;;;5020026;28;20091;-49
2020/12/17 05:53:30;;;;;;;0.43;0.20;;;21.10;44.10;;;;;;5025518;28;20025;-48
2020/12/17 05:56:04;;;;;;;0.57;0.20;;;21.10;43.80;;;;;;5022937;28;20053;-48
2020/12/17 05:58:39;;;;;;;0.55;0.20;;;21.10;43.80;;;;;;5025218;28;20396;-48
2020/12/17 06:01:16;;;;;;;0.85;0.20;;;21.10;43.80;;;;;;5020137;28;20028;-48
2020/12/17 06:03:43;;;;;;;0.52;0.20;;;21.10;43.90;;;;;;5026144;28;20622;-50
2020/12/17 06:06:09;;;;;;;0.68;0.20;;;21.10;43.90;;;;;;5027035;28;20030;-48
2020/12/17 06:08:38;;;;;;;0.70;0.22;;;21.10;43.90;;;;;;5021837;28;20034;-48
2020/12/17 06:11:09;;;;;;;0.50;0.20;;;21.00;43.90;;;;;;5046819;22;20018;-48
2020/12/17 06:13:41;;;;;;;0.52;0.20;;;21.10;43.90;;;;;;5081615;28;20033;-46
2020/12/17 06:16:08;;;;;;;;;;;21.00;43.90;;;;;;5075570;28;20043;-47
2020/12/17 06:19:01;;;;;;;0.60;0.20;;;21.00;43.90;;;;;;5087554;28;19919;-45
2020/12/17 06:21:27;;;;;;;0.63;0.20;;;21.00;43.90;;;;;;5078331;28;20403;-46
2020/12/17 06:24:01;;;;;;;0.75;0.25;;;21.00;43.80;;;;;;5069361;28;20024;-45
2020/12/17 06:26:27;;;;;;;0.60;0.20;;;21.00;43.80;;;;;;5065841;28;20021;-45
2020/12/17 06:28:54;;;;;;;0.60;0.20;;;21.00;43.90;;;;;;5065696;28;20100;-46
2020/12/17 06:31:25;;;;;;;0.70;0.30;;;21.00;44.20;;;;;;5070789;28;20127;-47
2020/12/17 06:33:56;;;;;;;0.57;0.20;;;20.90;44.20;;;;;;5068439;28;20067;-47
2020/12/17 06:36:30;;;;;;;0.57;0.30;;;20.90;44.40;;;;;;5066541;28;20036;-46
2020/12/17 06:38:55;;;;;;;0.47;0.20;;;20.90;44.70;;;;;;5065348;28;20023;-46
2020/12/17 06:41:24;;;;;;;1.05;0.40;;;20.90;44.70;;;;;;5068582;28;20542;-46
2020/12/17 06:43:50;;;;;;;0.85;0.22;;;20.90;44.60;;;;;;5076783;28;20021;-45
2020/12/17 06:46:29;;;;;;;0.93;0.30;;;20.90;44.50;;;;;;5069034;28;20676;-45
2020/12/17 06:48:55;;;;;;;1.58;0.30;;;20.90;44.40;;;;;;5066723;28;20116;-47
2020/12/17 06:51:40;;;;;;;0.95;0.20;;;20.90;44.40;;;;;;5070643;28;20115;-49
2020/12/17 06:54:26;;;;;;;0.68;0.22;;;20.90;44.30;;;;;;5067153;28;20032;-46
2020/12/17 06:57:07;;;;;;;1.08;0.50;;;20.90;44.30;;;;;;5041054;28;20044;-46
2020/12/17 06:59:34;;;;;;;0.80;0.30;;;20.90;44.40;;;;;;5071806;28;20024;-44
2020/12/17 07:02:00;;;;;;;1.65;0.28;;;21.00;44.30;;;;;;5068173;28;20021;-48
2020/12/17 07:04:37;;;;;;;2.15;0.30;;;21.10;44.10;;;;;;5067233;28;20088;-46
2020/12/17 07:07:19;;;;;;;0.60;0.40;;;21.10;43.90;;;;;;5069616;28;20051;-45
2020/12/17 07:09:50;;;;;;;0.80;0.20;;;21.30;43.70;;;;;;5074841;28;20052;-47
2020/12/17 07:12:34;;;;;;;0.65;0.20;;;21.40;43.50;;;;;;5076617;28;20115;-45
2020/12/17 07:15:00;;;;;;;0.60;0.20;;;21.50;43.30;;;;;;5068513;28;20032;-46
2020/12/17 07:17:26;;;;;;;1.52;0.32;;;21.60;43.10;;;;;;5071261;28;20024;-46
2020/12/17 07:19:52;;;;;;;0.77;0.35;;;21.70;43.00;;;;;;5071122;28;20449;-45
2020/12/17 07:22:18;;;;;;;2.05;0.20;;;21.70;42.90;;;;;;5048030;28;20059;-44
2020/12/17 07:24:49;;;;;;;2.22;0.28;;;21.80;42.80;;;;;;5067177;28;20481;-45
2020/12/17 07:27:17;;;;;;;1.30;0.35;;;21.90;42.80;;;;;;5061037;28;20037;-47
2020/12/17 07:29:51;;;;;;;1.10;0.30;;;21.90;42.70;;;;;;5059863;28;20160;-47
2020/12/17 07:32:33;;;;;;;0.70;0.20;;;21.90;42.70;;;;;;5068078;28;20021;-47
2020/12/17 07:35:00;;;;;;;0.70;0.30;;;21.90;42.80;;;;;;5072720;28;20074;-45
2020/12/17 07:37:51;;;;;;;1.10;0.30;;;21.90;42.70;;;;;;5065240;28;20036;-46
2020/12/17 07:40:19;;;;;;;1.33;0.43;;;21.90;42.80;;;;;;5061720;28;20046;-46
2020/12/17 07:43:07;;;;;;;0.75;0.20;;;21.80;42.80;;;;;;5069905;28;20035;-46
2020/12/17 07:45:58;;;;;;;2.55;0.40;;;21.80;42.90;;;;;;5062908;28;20028;-45
2020/12/17 07:48:39;;;;;;;1.60;0.35;;;21.80;42.90;;;;;;5083551;28;20032;-45
2020/12/17 07:51:13;;;;;;;0.73;0.35;;;21.80;43.00;;;;;;5066745;28;20033;-46
2020/12/17 07:53:43;;;;;;;0.93;0.30;;;21.80;43.00;;;;;;5067283;28;20085;-48
2020/12/17 07:56:10;;;;;;;1.15;0.40;;;21.80;43.30;;;;;;5067440;28;20143;-49
2020/12/17 07:58:36;;;;;;;1.48;0.50;;;21.80;43.60;;;;;;5061689;28;20044;-46
2020/12/17 08:01:03;;;;;;;1.30;0.50;;;21.80;43.90;;;;;;5051525;28;20564;-45
2020/12/17 08:03:29;;;;;;;3.38;0.45;;;21.70;44.80;;;;;;5071619;28;20402;-43
2020/12/17 08:06:08;;;;;;;2.95;0.60;;;21.60;45.00;;;;;;5069746;28;20554;-44
2020/12/17 08:08:34;;;;;;;2.15;0.50;;;21.60;45.10;;;;;;5069239;28;20089;-48
2020/12/17 08:11:04;;;;;;;1.40;0.60;;;21.60;45.30;;;;;;5073354;28;20128;-47
2020/12/17 08:13:30;;;;;;;2.03;0.50;;;21.60;45.30;;;;;;5071484;28;20048;-46
2020/12/17 08:15:57;;;;;;;0.98;0.50;;;21.60;45.40;;;;;;5065064;28;20024;-49
2020/12/17 08:18:34;;;;;;;1.27;0.60;;;21.60;45.60;;;;;;5066196;28;20032;-48
2020/12/17 08:21:04;;;;;;;2.20;0.43;;;21.60;45.40;;;;;;5068520;28;20021;-49
2020/12/17 08:23:32;;;;;;;2.20;0.70;;;21.70;45.30;;;;;;5064465;28;20490;-46
2020/12/17 08:26:01;;;;;;;1.88;0.65;;;21.70;45.50;;;;;;5067872;28;20481;-47
2020/12/17 08:28:32;;;;;;;1.50;0.60;;;21.70;45.50;;;;;;5065356;28;20047;-49
2020/12/17 08:31:15;;;;;;;1.30;0.70;;;21.70;45.50;;;;;;5065620;28;20051;-46
2020/12/17 08:33:43;;;;;;;1.13;0.60;;;21.70;45.50;;;;;;5066479;28;20115;-51
2020/12/17 08:36:12;;;;;;;1.42;0.70;;;21.70;45.60;;;;;;5067592;28;20037;-51
2020/12/17 08:38:38;;;;;;;1.52;0.70;;;21.70;45.50;;;;;;5062926;28;20059;-51
2020/12/17 08:41:07;;;;;;;1.60;0.52;;;21.70;45.50;;;;;;5069063;28;20028;-48
2020/12/17 08:43:43;;;;;;;1.65;0.57;;;21.60;45.50;;;;;;5051068;28;20043;-51
2020/12/17 08:46:14;;;;;;;2.33;0.88;;;21.60;45.60;;;;;;5070507;28;20115;-50
2020/12/17 08:48:40;;;;;;;2.13;0.68;;;21.70;45.80;;;;;;5072262;28;20064;-49
2020/12/17 08:51:10;;;;;;;2.35;0.60;;;21.70;45.70;;;;;;5071995;28;20032;-46
2020/12/17 08:53:40;;;;;;;1.83;0.65;;;21.70;45.60;;;;;;5071507;28;20050;-49
2020/12/17 08:56:11;;;;;;;2.33;1.08;;;21.70;45.90;;;;;;5069256;28;20460;-50
2020/12/17 08:58:50;;;;;;;1.52;0.75;;;21.70;45.60;;;;;;5067694;28;20125;-47
2020/12/17 09:01:17;;;;;;;2.35;0.98;;;21.70;45.50;;;;;;5062272;28;20017;-49
2020/12/17 09:03:44;;;;;;;1.13;0.63;;;21.70;45.80;;;;;;5068194;28;20036;-51
2020/12/17 09:06:11;;;;;;;1.95;0.82;;;21.70;45.70;;;;;;5071522;28;20028;-48
2020/12/17 09:08:36;;;;;;;2.55;1.00;;;21.70;45.60;;;;;;5066446;28;20035;-45
2020/12/17 09:11:02;;;;;;;3.58;0.95;;;21.70;45.50;;;;;;5073804;28;20641;-48
2020/12/17 09:13:28;;;;;;;4.00;1.25;;;21.70;45.60;;;;;;5074494;28;20051;-48
2020/12/17 09:16:01;;;;;;;2.83;0.90;;;21.70;45.70;;;;;;5066900;28;20048;-49
2020/12/17 09:18:28;;;;;;;2.20;1.40;;;21.80;45.70;;;;;;5066986;28;20055;-48
2020/12/17 09:21:08;;;;;;;2.42;1.05;;;21.60;45.50;;;;;;5079985;28;20029;-49
2020/12/17 09:23:34;;;;;;;2.10;1.13;;;21.60;45.80;;;;;;5063348;28;20029;-46
2020/12/17 09:26:15;;;;;;;4.18;1.25;;;21.50;45.80;;;;;;5072252;28;20070;-46
2020/12/17 09:28:55;;;;;;;2.17;1.02;;;21.50;46.30;;;;;;5058247;28;20044;-50
2020/12/17 09:31:22;;;;;;;3.05;1.20;;;21.40;45.80;;;;;;5066325;28;20029;-49
2020/12/17 09:33:48;;;;;;;2.67;1.52;;;21.50;45.80;;;;;;5072263;28;20461;-47
2020/12/17 09:36:15;;;;;;;2.30;1.23;;;21.50;45.80;;;;;;5076115;28;20043;-50
2020/12/17 09:38:41;;;;;;;1.65;1.25;;;21.40;45.70;;;;;;5075953;28;20024;-50
2020/12/17 09:41:06;;;;;;;3.38;1.27;;;21.40;45.70;;;;;;5072985;28;20062;-47
2020/12/17 09:43:32;;;;;;;2.63;1.30;;;21.40;45.60;;;;;;5068852;28;20099;-49
2020/12/17 09:45:58;;;;;;;3.00;1.70;;;21.40;45.60;;;;;;5054403;28;20024;-49
2020/12/17 09:48:31;;;;;;;2.60;1.73;;;21.40;45.60;;;;;;5078328;28;20037;-48
2020/12/17 09:51:04;;;;;;;1.95;1.20;;;21.40;45.50;;;;;;5075688;28;20050;-47
2020/12/17 09:53:32;;;;;;;1.70;1.45;;;21.40;45.50;;;;;;5063157;28;20036;-52
2020/12/17 09:55:58;;;;;;;2.67;1.35;;;21.40;45.70;;;;;;5059233;28;20029;-51
2020/12/17 09:58:24;;;;;;;1.88;1.30;;;21.40;45.50;;;;;;5061157;28;20047;-52
2020/12/17 10:00:49;;;;;;;3.20;1.23;;;21.40;45.50;;;;;;5068540;28;20116;-51
2020/12/17 10:03:15;;;;;;;2.38;1.30;;;21.50;45.40;;;;;;5057108;28;20571;-49
2020/12/17 10:05:41;;;;;;;1.33;1.08;;;21.60;45.30;;;;;;5060432;28;20444;-48
2020/12/17 10:08:07;;;;;;;1.85;1.02;;;21.70;45.20;;;;;;5062951;28;20032;-47
2020/12/17 10:10:34;;;;;;;1.83;1.17;;;21.80;45.10;;;;;;5066678;28;20139;-48
2020/12/17 10:13:03;;;;;;;1.55;1.10;;;21.90;44.90;;;;;;5062410;28;20041;-48
2020/12/17 10:15:29;;;;;;;1.88;1.23;;;22.00;44.70;;;;;;5060001;28;20028;-49
2020/12/17 10:17:56;;;;;;;1.63;1.08;;;22.20;44.50;;;;;;5071319;28;20497;-50
2020/12/17 10:20:23;;;;;;;1.90;1.23;;;22.20;44.40;;;;;;5072717;28;20104;-50
2020/12/17 10:22:50;;;;;;;1.42;0.80;;;22.30;44.40;;;;;;5075368;28;20021;-50
2020/12/17 10:25:16;;;;;;;2.17;1.00;;;22.30;44.30;;;;;;5075642;28;20017;-50
2020/12/17 10:27:42;;;;;;;1.77;1.13;;;22.30;44.30;;;;;;5075831;28;20094;-50
2020/12/17 10:30:09;;;;;;;2.05;0.82;;;22.40;44.20;;;;;;5070167;28;20036;-47
2020/12/17 10:32:35;;;;;;;1.60;0.85;;;22.40;44.30;;;;;;5068313;28;20123;-49
2020/12/17 10:35:01;;;;;;;1.77;0.70;;;22.30;44.50;;;;;;5071372;28;20063;-44
2020/12/17 10:37:27;;;;;;;2.00;0.68;;;22.40;44.40;;;;;;5071668;28;20060;-46
2020/12/17 10:39:53;;;;;;;1.20;0.70;;;22.50;44.30;;;;;;5073912;28;20035;-43
2020/12/17 10:42:19;;;;;;;1.00;0.63;;;22.60;44.30;;;;;;5071256;28;20028;-46
2020/12/17 10:44:45;;;;;;;1.38;0.55;;;22.50;44.50;;;;;;5069116;28;20395;-49
2020/12/17 10:47:10;;;;;;;1.13;0.75;;;22.50;44.60;;;;;;5071237;28;20108;-43
2020/12/17 10:49:36;;;;;;;1.88;0.80;;;22.50;44.70;;;;;;5062252;28;20024;-42
2020/12/17 10:52:02;;;;;;;6.07;1.15;;;22.40;44.80;;;;;;5051267;28;20744;-44
2020/12/17 10:54:28;;;;;;;0.75;0.47;;;22.30;44.90;;;;;;5074366;28;20094;-46
2020/12/17 10:56:54;;;;;;;0.85;0.50;;;22.30;45.10;;;;;;5070318;28;20039;-46
2020/12/17 10:59:19;;;;;;;1.67;0.50;;;22.20;45.00;;;;;;5069590;28;20032;-43
2020/12/17 11:01:45;;;;;;;2.88;0.65;;;22.20;45.20;;;;;;5073920;28;20115;-47
2020/12/17 11:04:10;;;;;;;3.20;0.65;;;22.30;45.20;;;;;;5067513;28;20020;-46
2020/12/17 11:06:36;;;;;;;1.10;0.60;;;22.30;45.10;;;;;;5069632;28;20048;-44
2020/12/17 11:09:01;;;;;;;2.00;0.70;;;22.20;45.10;;;;;;5063453;28;20036;-46
2020/12/17 11:11:27;;;;;;;1.95;0.90;;;22.30;45.10;;;;;;5085870;28;20028;-46
2020/12/17 11:13:53;;;;;;;1.73;0.50;;;22.30;45.00;;;;;;5069920;28;20036;-48
2020/12/17 11:16:19;;;;;;;3.42;0.65;;;22.30;44.70;;;;;;5070968;28;20490;-47
2020/12/17 11:18:45;;;;;;;1.20;0.90;;;22.30;44.80;;;;;;5070618;28;20032;-47
2020/12/17 11:21:11;;;;;;;1.90;0.68;;;22.30;44.90;;;;;;5065610;28;20681;-45
2020/12/17 11:23:37;;;;;;;1.48;0.75;;;22.20;44.90;;;;;;5068991;28;20065;-45
2020/12/17 11:26:03;;;;;;;2.53;0.70;;;22.20;44.90;;;;;;5076505;28;20095;-46
2020/12/17 11:28:29;;;;;;;3.15;0.80;;;22.20;44.90;;;;;;5066843;28;20067;-47
2020/12/17 11:30:55;;;;;;;3.22;1.02;;;22.10;44.90;;;;;;5070043;28;20076;-46
2020/12/17 11:33:20;;;;;;;3.05;0.75;;;22.10;45.10;;;;;;5071180;28;20036;-48
2020/12/17 11:35:46;;;;;;;1.42;0.70;;;22.20;44.90;;;;;;5065151;28;20032;-50
2020/12/17 11:38:15;;;;;;;1.92;0.80;;;22.20;44.90;;;;;;5069001;28;20158;-48
2020/12/17 11:40:41;;;;;;;3.78;0.88;;;22.10;45.00;;;;;;5072859;28;20044;-49
2020/12/17 11:43:07;;;;;;;4.63;0.95;;;22.10;45.10;;;;;;5070519;28;20029;-49
2020/12/17 11:45:33;;;;;;;5.13;1.25;;;22.10;45.10;;;;;;5059015;28;20158;-53
2020/12/17 11:47:59;;;;;;;1.80;0.90;;;22.00;45.10;;;;;;5064090;28;20036;-47
2020/12/17 11:50:24;;;;;;;7.72;1.38;;;22.10;45.00;;;;;;5069447;28;20032;-51
2020/12/17 11:52:50;;;;;;;6.60;0.88;;;22.10;44.90;;;;;;5071976;28;20097;-49
2020/12/17 11:55:16;;;;;;;1.27;0.68;;;22.10;44.90;;;;;;5068867;28;20035;-48
2020/12/17 11:57:42;;;;;;;1.65;0.95;;;22.10;44.80;;;;;;5060371;28;20119;-48
2020/12/17 12:00:08;;;;;;;1.15;0.73;;;22.10;44.70;;;;;;5069026;28;20035;-49
2020/12/17 12:02:34;;;;;;;1.60;0.90;;;22.10;44.70;;;;;;5070578;28;20020;-51
2020/12/17 12:05:00;;;;;;;4.07;0.95;;;22.10;44.70;;;;;;5075701;28;20028;-49
2020/12/17 12:07:26;;;;;;;1.25;0.60;;;22.10;44.70;;;;;;5069243;28;20027;-51
2020/12/17 12:09:52;;;;;;;2.92;1.10;;;22.00;44.60;;;;;;5074512;28;20028;-50
2020/12/17 12:12:18;;;;;;;1.08;0.73;;;22.00;44.60;;;;;;5077724;28;20028;-47
2020/12/17 12:14:45;;;;;;;1.67;0.60;;;22.00;44.60;;;;;;5069096;28;20029;-48
2020/12/17 12:17:10;;;;;;;4.38;0.63;;;22.00;44.70;;;;;;5069566;28;20024;-52
2020/12/17 12:19:36;;;;;;;1.60;0.50;;;22.00;44.70;;;;;;5069770;28;20036;-48
2020/12/17 12:22:02;;;;;;;1.58;0.80;;;21.90;44.70;;;;;;5064064;28;20035;-49
2020/12/17 12:24:27;;;;;;;1.10;0.45;;;21.90;44.70;;;;;;5057925;28;20028;-49
2020/12/17 12:26:53;;;;;;;3.13;0.60;;;21.90;44.70;;;;;;5069468;28;20550;-50
2020/12/17 12:29:18;;;;;;;1.98;0.90;;;21.90;44.60;;;;;;5069141;28;20485;-49
2020/12/17 12:31:44;;;;;;;2.42;0.80;;;21.90;44.60;;;;;;5070539;28;20082;-48
2020/12/17 12:34:09;;;;;;;1.35;0.70;;;21.80;44.60;;;;;;5069157;28;20115;-54
2020/12/17 12:36:35;;;;;;;1.48;0.70;;;21.80;44.50;;;;;;5069334;28;20239;-48
2020/12/17 12:39:01;;;;;;;1.15;0.68;;;21.80;44.50;;;;;;5056850;28;20060;-50
2020/12/17 12:41:26;;;;;;;1.67;0.77;;;21.80;44.50;;;;;;5073318;28;20028;-51
2020/12/17 12:43:52;;;;;;;1.15;0.63;;;21.80;44.50;;;;;;5068123;28;20040;-51
2020/12/17 12:46:20;;;;;;;1.52;0.40;;;21.80;44.60;;;;;;5067205;28;20023;-49
2020/12/17 12:48:46;;;;;;;1.02;0.40;;;21.70;44.50;;;;;;5066142;28;20035;-47
2020/12/17 12:51:13;;;;;;;1.48;0.57;;;21.80;44.50;;;;;;5050527;28;20039;-48